Riverside, MI (49084)

8:53 AM EDT on July 04, 2015 (GMT -0400)
Kevin and Patricia's | | Change Station
CLOSE
Current Station
Personal Weather Station
Location: Millburg, MI
Elevation: 669 ft
Nearby Weather Stations

Elev 669 ft 42.12 °N, 86.34 °W | Updated 10 seconds ago

Clear
Clear
56.3 °F
Feels Like 56.3 °F
N
0.0
Wind Variable Wind from East
Gusts 0.0 mph

Today
High -- | Low -- °F
--% Chance of Precip.
Yesterday
High -- | Low -- °F
Precip. -- in
6:14 AM 9:24 PM
Waning Gibbous, 92% visible
Pressure 29.99 in
Visibility 5.0 miles
Clouds Clear
Dew Point 53 °F
Humidity 90%
Rainfall 0.00 in
Snow Depth Not available.
UV 1 out of 12
Pollen 3.30 out of 12
Air Quality Not available.
Flu Activity Not available.
METAR KBEH 041153Z AUTO 00000KT 5SM BR CLR 13/12 A2999 RMK AO2 SLP154 T01280117 10128 20094 53009

More Conditions Fewer Conditions

Pressure 29.99 in
Visibility 5.0 miles
Clouds Clear
Dew Point 53 °F
Humidity 90%
Rainfall 0.00 in
Snow Depth Not available.
UV 1 out of 12
Pollen 3.30 out of 12
Air Quality Not available.
Flu Activity Not available.
METAR KBEH 041153Z AUTO 00000KT 5SM BR CLR 13/12 A2999 RMK AO2 SLP154 T01280117 10128 20094 53009

More Conditions Fewer Conditions

10-Day Weather Forecast

×

Almanac

Astronomy

Jul. 04, 2015 Rise Set
Actual Time
Civil Twilight
Nautical Twilight
Astronomical Twilight
Moon
Length of Visible Light
Length of Day
Tomorrow will be .
, % of the Moon is Illuminated

Today's Extremes

State Highs State Lows

Community

WunderPhotos

Upload Photos

1,834,948 photos uploaded!

WunderBlogs® & News

Nearby

Air Quality

  Air Quality AQ Index Pollutant
Not available.

Snow Depth

Station Depth Elevation

Earthquake Activity

City Distance Mag. Time & Date
Minimum magnitude displayed is 2.5.

Coastal Water Temperatures

Place Temperature

Stations

Nearby Weather Stations

Station Location Temp. Windchill Dew Point Humidity Wind Precip. Elev Updated Type